Time;durP1;ratioP1;P1;durP2;ratioP2;P2;SDS_P1;SDS_P2;PMS_P1;PMS_P2;Temp;Humidity;BMP_temperature;BMP_pressure;BME280_temperature;BME280_humidity;BME280_pressure;Samples;Min_cycle;Max_cycle;Signal;HPM_P1;HPM_P2
2024/03/21 00:00:41;;;;;;;14.80;8.20;;;;;;;4.35;100.00;100954.18;111131;1231;73046;-67
2024/03/21 00:03:08;;;;;;;18.30;9.10;;;;;;;4.35;100.00;100956.53;111096;1231;73001;-66
2024/03/21 00:05:35;;;;;;;16.30;9.00;;;;;;;4.35;100.00;100955.93;111106;1235;62012;-66
2024/03/21 00:08:03;;;;;;;16.40;8.50;;;;;;;4.36;100.00;100953.73;111038;1231;61911;-67
2024/03/21 00:10:31;;;;;;;15.80;8.90;;;;;;;4.35;100.00;100950.30;111140;1231;75229;-67
2024/03/21 00:12:58;;;;;;;15.20;7.60;;;;;;;4.37;100.00;100953.31;111123;1231;72567;-66
2024/03/21 00:15:25;;;;;;;18.00;8.40;;;;;;;4.39;100.00;100952.90;111106;1235;73181;-67
2024/03/21 00:17:51;;;;;;;14.50;8.40;;;;;;;4.42;100.00;100953.34;111125;1231;61538;-67
2024/03/21 00:20:19;;;;;;;17.20;8.40;;;;;;;4.44;100.00;100952.52;111162;1231;61918;-66
2024/03/21 00:22:46;;;;;;;15.60;7.80;;;;;;;4.48;100.00;100955.21;111132;1231;75549;-68
2024/03/21 00:25:13;;;;;;;15.40;7.70;;;;;;;4.52;100.00;100952.46;111145;1231;72959;-67
2024/03/21 00:27:40;;;;;;;15.70;7.80;;;;;;;4.55;100.00;100952.22;111147;1231;72703;-66
2024/03/21 00:30:09;;;;;;;15.30;8.30;;;;;;;4.56;100.00;100953.55;111136;1231;61991;-65
2024/03/21 00:32:36;;;;;;;17.50;8.70;;;;;;;4.57;100.00;100951.11;111162;1231;61968;-66
2024/03/21 00:35:06;;;;;;;15.90;7.70;;;;;;;4.59;100.00;100957.09;111135;1231;75203;-65
2024/03/21 00:37:33;;;;;;;16.30;7.60;;;;;;;4.60;100.00;100958.10;111181;1232;72599;-67
2024/03/21 00:40:00;;;;;;;13.20;7.20;;;;;;;4.60;100.00;100957.61;111167;1236;72635;-66
2024/03/21 00:42:27;;;;;;;13.20;7.60;;;;;;;4.62;100.00;100959.73;111127;1231;62028;-66
2024/03/21 00:44:54;;;;;;;13.60;8.20;;;;;;;4.60;100.00;100956.20;111162;1231;62030;-66
2024/03/21 00:47:21;;;;;;;15.70;8.50;;;;;;;4.59;100.00;100956.41;111158;1231;73427;-66
2024/03/21 00:49:48;;;;;;;17.80;8.10;;;;;;;4.58;100.00;100956.93;111159;1231;72473;-66
2024/03/21 00:52:15;;;;;;;18.50;8.00;;;;;;;4.56;100.00;100954.53;111124;1236;71173;-67
2024/03/21 00:54:42;;;;;;;12.80;7.70;;;;;;;4.53;100.00;100955.44;111124;1231;61986;-66
2024/03/21 00:57:09;;;;;;;12.60;7.00;;;;;;;4.51;100.00;100950.77;111154;1231;61915;-67
2024/03/21 00:59:36;;;;;;;12.40;7.40;;;;;;;4.51;100.00;100949.38;111102;1231;73971;-66
2024/03/21 01:02:03;;;;;;;15.00;7.60;;;;;;;4.52;100.00;100948.03;111160;1232;71184;-66
2024/03/21 01:04:30;;;;;;;17.60;7.70;;;;;;;4.51;100.00;100944.46;111133;1231;73539;-67
2024/03/21 01:06:57;;;;;;;11.90;8.10;;;;;;;4.47;100.00;100939.78;111136;1231;62253;-66
2024/03/21 01:09:24;;;;;;;12.70;7.30;;;;;;;4.44;100.00;100938.32;111111;1231;62144;-67
2024/03/21 01:11:54;;;;;;;13.70;7.90;;;;;;;4.41;100.00;100936.18;111121;1231;75404;-67
2024/03/21 01:14:21;;;;;;;15.20;7.60;;;;;;;4.37;100.00;100939.16;111129;1231;72741;-68
2024/03/21 01:16:48;;;;;;;13.50;7.50;;;;;;;4.33;100.00;100937.94;111100;1231;72923;-67
2024/03/21 01:19:15;;;;;;;19.20;7.80;;;;;;;4.32;100.00;100933.95;111128;1231;61894;-67
2024/03/21 01:21:42;;;;;;;11.10;7.00;;;;;;;4.32;100.00;100934.64;110754;1231;513401;-67
2024/03/21 01:24:09;;;;;;;14.20;7.90;;;;;;;4.32;100.00;100937.66;111155;1231;74347;-68
2024/03/21 01:26:35;;;;;;;13.90;6.80;;;;;;;4.30;100.00;100933.05;111096;1231;72214;-68
2024/03/21 01:29:03;;;;;;;13.40;7.40;;;;;;;4.31;100.00;100936.19;111105;1231;71082;-66
2024/03/21 01:31:29;;;;;;;15.00;7.60;;;;;;;4.32;100.00;100935.55;111078;1231;61900;-66
2024/03/21 01:33:56;;;;;;;12.70;7.10;;;;;;;4.31;100.00;100936.36;111146;1231;61909;-66
2024/03/21 01:36:24;;;;;;;14.50;7.20;;;;;;;4.31;100.00;100931.59;111097;1236;75951;-66
2024/03/21 01:38:50;;;;;;;12.80;7.00;;;;;;;4.29;100.00;100934.00;111135;1232;71284;-67
2024/03/21 01:41:18;;;;;;;13.20;7.50;;;;;;;4.29;100.00;100936.08;111081;1231;72435;-67
2024/03/21 01:43:45;;;;;;;14.90;8.00;;;;;;;4.28;100.00;100936.73;111101;1231;62007;-66
2024/03/21 01:46:14;;;;;;;13.90;8.40;;;;;;;4.28;100.00;100935.79;111164;1231;61795;-66
2024/03/21 01:48:43;;;;;;;16.00;7.80;;;;;;;4.30;100.00;100937.58;111139;1232;75105;-67
2024/03/21 01:51:11;;;;;;;15.20;7.70;;;;;;;4.30;100.00;100938.64;111108;1232;72699;-67
2024/03/21 01:53:39;;;;;;;15.00;7.50;;;;;;;4.30;100.00;100934.97;111153;1231;71653;-67
2024/03/21 01:56:06;;;;;;;13.60;7.70;;;;;;;4.26;100.00;100935.91;111153;1231;61920;-65
2024/03/21 01:58:33;;;;;;;14.10;7.90;;;;;;;4.23;100.00;100939.86;111182;1232;60834;-67
2024/03/21 02:01:25;;;;;;;15.60;9.20;;;;;;;4.22;100.00;100941.09;111120;1231;74900;-66
2024/03/21 02:03:53;;;;;;;13.20;7.50;;;;;;;4.20;100.00;100944.50;111119;1231;71036;-67
2024/03/21 02:06:20;;;;;;;12.70;7.70;;;;;;;4.19;100.00;100942.64;111143;1231;72588;-67
2024/03/21 02:08:48;;;;;;;11.70;6.90;;;;;;;4.20;100.00;100945.08;111151;1235;62039;-67
2024/03/21 02:11:15;;;;;;;15.80;8.00;;;;;;;4.20;100.00;100946.61;111114;1231;62337;-67
2024/03/21 02:13:42;;;;;;;11.40;7.30;;;;;;;4.21;100.00;100947.64;111154;1231;75393;-67
2024/03/21 02:16:09;;;;;;;12.50;7.60;;;;;;;4.25;100.00;100947.92;111083;1231;72952;-68
2024/03/21 02:18:36;;;;;;;14.70;7.20;;;;;;;4.27;100.00;100941.33;111159;1232;71327;-67
2024/03/21 02:22:35;;;;;;;13.40;8.40;;;;;;;4.28;100.00;100943.61;111112;1231;62147;-67
2024/03/21 02:23:54;;;;;;;13.00;8.50;;;;;;;4.30;100.00;100940.54;111160;1231;61856;-67
2024/03/21 02:26:22;;;;;;;10.60;6.80;;;;;;;4.30;100.00;100941.55;111147;1232;75110;-67
2024/03/21 02:28:51;;;;;;;14.40;7.60;;;;;;;4.31;100.00;100941.52;111157;1232;72565;-66
2024/03/21 02:31:19;;;;;;;16.50;8.10;;;;;;;4.31;100.00;100940.98;111156;1232;73370;-68
2024/03/21 02:33:47;;;;;;;11.10;7.80;;;;;;;4.32;100.00;100943.84;111158;1236;62113;-67
2024/03/21 02:36:14;;;;;;;13.00;7.90;;;;;;;4.30;100.00;100939.77;111187;1232;62145;-67
2024/03/21 02:38:41;;;;;;;12.80;8.30;;;;;;;4.29;100.00;100939.14;111147;1232;75464;-67
2024/03/21 02:41:07;;;;;;;15.20;8.40;;;;;;;4.28;100.00;100938.35;111183;1232;72670;-66
2024/03/21 02:43:35;;;;;;;12.80;7.90;;;;;;;4.28;100.00;100939.81;111196;1231;72979;-67
2024/03/21 02:46:01;;;;;;;14.80;7.60;;;;;;;4.27;100.00;100945.71;111137;1231;62100;-67
2024/03/21 02:48:29;;;;;;;14.50;7.90;;;;;;;4.25;100.00;100941.33;111169;1231;62100;-67
2024/03/21 02:50:57;;;;;;;12.80;8.20;;;;;;;4.24;100.00;100941.65;111184;1231;75347;-67
2024/03/21 02:53:25;;;;;;;14.10;7.90;;;;;;;4.25;100.00;100946.50;111184;1236;72891;-68
2024/03/21 02:55:55;;;;;;;14.70;8.70;;;;;;;4.24;100.00;100953.12;111171;1231;71389;-69
2024/03/21 02:58:29;;;;;;;14.40;7.90;;;;;;;4.22;100.00;100951.50;111146;1231;61843;-67
2024/03/21 03:01:08;;;;;;;11.70;7.50;;;;;;;4.22;100.00;100952.36;111114;1232;62188;-67
2024/03/21 03:03:38;;;;;;;13.30;7.60;;;;;;;4.19;100.00;100953.29;111161;1236;75233;-67
2024/03/21 03:06:14;;;;;;;15.70;8.20;;;;;;;4.14;100.00;100955.69;111148;1232;71553;-67
2024/03/21 03:08:49;;;;;;;16.60;8.10;;;;;;;4.12;100.00;100957.33;111133;1232;72710;-67
2024/03/21 03:11:37;;;;;;;15.70;9.00;;;;;;;4.12;100.00;100962.52;111128;1232;61075;-67
2024/03/21 03:14:23;;;;;;;14.90;8.10;;;;;;;4.13;100.00;100962.95;111151;1230;61863;-67
2024/03/21 03:17:16;;;;;;;14.90;9.00;;;;;;;4.12;100.00;100965.46;111109;1232;75905;-67
2024/03/21 03:19:53;;;;;;;15.40;9.30;;;;;;;4.11;100.00;100968.27;111128;1232;71131;-67
2024/03/21 03:22:41;;;;;;;17.80;8.90;;;;;;;4.11;100.00;100971.96;111043;1232;72011;-65
2024/03/21 03:25:18;;;;;;;15.50;8.60;;;;;;;4.12;100.00;100979.37;111040;1231;61883;-67
2024/03/21 03:27:47;;;;;;;14.00;8.00;;;;;;;4.12;100.00;100982.06;111160;1237;62004;-66
2024/03/21 03:30:15;;;;;;;17.10;8.80;;;;;;;4.12;100.00;100980.47;111171;1233;74197;-66
2024/03/21 03:32:58;;;;;;;16.00;9.10;;;;;;;4.14;100.00;100986.98;111178;1232;72691;-66
2024/03/21 03:35:43;;;;;;;17.80;9.50;;;;;;;4.14;100.00;100992.66;111129;1232;73053;-68
2024/03/21 03:38:23;;;;;;;11.40;8.10;;;;;;;4.15;100.00;100991.01;111030;1232;61897;-67
2024/03/21 03:40:57;;;;;;;16.90;9.70;;;;;;;4.13;100.00;100991.08;111154;1232;61904;-67
2024/03/21 03:43:44;;;;;;;18.00;9.20;;;;;;;4.11;100.00;100995.27;111152;1231;75471;-67
2024/03/21 03:46:20;;;;;;;17.70;9.50;;;;;;;4.08;100.00;100993.90;111052;1232;73762;-67
2024/03/21 03:49:09;;;;;;;15.10;8.70;;;;;;;4.05;100.00;100996.77;111093;1232;72919;-66
2024/03/21 03:52:02;;;;;;;13.70;8.40;;;;;;;4.04;100.00;100998.64;111092;1231;62016;-67
2024/03/21 03:54:48;;;;;;;12.90;8.00;;;;;;;4.03;100.00;101000.67;111159;1232;60132;-68
2024/03/21 03:57:33;;;;;;;16.50;8.90;;;;;;;4.04;100.00;101003.32;111130;1232;75695;-68
2024/03/21 04:00:10;;;;;;;16.40;8.40;;;;;;;4.04;100.00;101005.92;111149;1235;71492;-68
2024/03/21 04:02:54;;;;;;;12.10;7.50;;;;;;;4.05;100.00;101005.11;111149;1232;71148;-69
2024/03/21 04:05:45;;;;;;;15.40;9.20;;;;;;;4.07;100.00;101010.39;111036;1231;61884;-68
2024/03/21 04:08:14;;;;;;;15.00;8.60;;;;;;;4.08;100.00;101007.30;111105;1232;61971;-67
2024/03/21 04:10:55;;;;;;;18.90;10.70;;;;;;;4.09;100.00;101007.88;111107;1232;75901;-67
2024/03/21 04:13:28;;;;;;;13.80;8.30;;;;;;;4.11;100.00;101014.48;111156;1232;73608;-68
2024/03/21 04:16:04;;;;;;;12.80;8.50;;;;;;;4.13;100.00;101013.65;111135;1232;71360;-67
2024/03/21 04:18:38;;;;;;;13.10;8.00;;;;;;;4.17;100.00;101020.90;111090;1232;59630;-67
2024/03/21 04:21:25;;;;;;;16.80;9.10;;;;;;;4.20;100.00;101022.11;111054;1232;61895;-68
2024/03/21 04:24:08;;;;;;;15.60;9.20;;;;;;;4.21;100.00;101021.09;111141;1231;74820;-67
2024/03/21 04:26:50;;;;;;;15.00;9.40;;;;;;;4.19;100.00;101023.38;111158;1232;73176;-67
2024/03/21 04:29:30;;;;;;;16.80;9.60;;;;;;;4.18;100.00;101024.39;111037;1235;72646;-67
2024/03/21 04:32:09;;;;;;;15.00;9.40;;;;;;;4.18;100.00;101024.64;111046;1232;62033;-68
2024/03/21 04:34:38;;;;;;;15.90;8.80;;;;;;;4.16;100.00;101026.23;111055;1231;61912;-68
2024/03/21 04:37:13;;;;;;;16.30;9.70;;;;;;;4.17;100.00;101028.49;111024;1231;74194;-67
2024/03/21 04:39:40;;;;;;;15.90;8.80;;;;;;;4.16;100.00;101027.25;111142;1236;72626;-67
2024/03/21 04:42:16;;;;;;;17.20;9.60;;;;;;;4.13;100.00;101025.41;111146;1231;72436;-68
2024/03/21 04:45:02;;;;;;;15.70;9.90;;;;;;;4.08;100.00;101026.47;111162;1232;61891;-67
2024/03/21 04:47:48;;;;;;;18.20;9.80;;;;;;;4.06;100.00;101028.89;111038;1232;61840;-67
2024/03/21 04:50:46;;;;;;;14.70;9.50;;;;;;;4.04;100.00;101031.05;111075;1237;75482;-67
2024/03/21 04:53:29;;;;;;;14.70;9.90;;;;;;;4.03;100.00;101032.47;111085;1236;71881;-68
2024/03/21 04:56:16;;;;;;;;;;;;;;;4.00;100.00;101036.25;111106;1236;72930;-68
2024/03/21 04:59:07;;;;;;;18.20;10.30;;;;;;;3.99;100.00;101035.08;111042;1232;62010;-67
2024/03/21 05:01:57;;;;;;;15.50;10.50;;;;;;;4.04;100.00;101035.61;111109;1232;61843;-67
2024/03/21 05:04:58;;;;;;;19.70;10.30;;;;;;;4.10;100.00;101035.82;111061;1232;75916;-67
2024/03/21 05:07:48;;;;;;;20.90;12.70;;;;;;;4.13;100.00;101034.44;111094;1235;71055;-67
2024/03/21 05:10:36;;;;;;;19.30;11.60;;;;;;;4.16;100.00;101036.67;111155;1232;71038;-67
2024/03/21 05:13:20;;;;;;;39.20;18.60;;;;;;;4.21;100.00;101036.52;111119;1237;62022;-67
2024/03/21 05:16:07;;;;;;;36.20;18.50;;;;;;;4.25;100.00;101041.52;111130;1231;61994;-66
2024/03/21 05:18:42;;;;;;;24.60;14.00;;;;;;;4.25;100.00;101038.46;111155;1232;73302;-67
2024/03/21 05:21:25;;;;;;;22.40;12.40;;;;;;;4.31;100.00;101040.39;111143;1235;71717;-68
2024/03/21 05:24:08;;;;;;;16.90;10.70;;;;;;;4.32;100.00;101039.17;111167;1232;73406;-68
2024/03/21 05:26:53;;;;;;;20.00;12.00;;;;;;;4.32;100.00;101038.80;111154;1232;61093;-67
2024/03/21 05:29:29;;;;;;;16.20;10.40;;;;;;;4.31;100.00;101041.64;111146;1231;61900;-67
2024/03/21 05:32:12;;;;;;;17.70;11.00;;;;;;;4.34;100.00;101046.44;111129;1232;77573;-67
2024/03/21 05:34:53;;;;;;;19.30;12.40;;;;;;;4.42;100.00;101048.23;111133;1232;72812;-68
2024/03/21 05:37:24;;;;;;;19.10;12.10;;;;;;;4.48;100.00;101050.71;111091;1232;73249;-68
2024/03/21 05:39:55;;;;;;;22.30;12.30;;;;;;;4.55;100.00;101051.73;111112;1231;61990;-67
2024/03/21 05:42:29;;;;;;;18.70;11.40;;;;;;;4.58;100.00;101054.97;111170;1232;61840;-67
2024/03/21 05:44:59;;;;;;;19.40;11.60;;;;;;;4.65;100.00;101056.64;111058;1232;75069;-67
2024/03/21 05:47:46;;;;;;;17.70;11.50;;;;;;;4.69;100.00;101062.02;111127;1232;73151;-67
2024/03/21 05:50:28;;;;;;;17.50;10.90;;;;;;;4.73;100.00;101063.23;111057;1232;73152;-67
2024/03/21 05:53:04;;;;;;;16.90;11.20;;;;;;;4.76;100.00;101066.68;111141;1231;61993;-69
2024/03/21 05:55:41;;;;;;;17.20;10.70;;;;;;;4.81;100.00;101063.88;111117;1237;60856;-67
2024/03/21 05:58:14;;;;;;;20.20;12.10;;;;;;;4.85;100.00;101063.61;111151;1232;75150;-67
2024/03/21 06:00:41;;;;;;;22.30;11.80;;;;;;;4.92;100.00;101064.81;110866;1238;71414;-67
2024/03/21 06:03:10;;;;;;;19.00;11.30;;;;;;;4.99;100.00;101065.41;110989;1232;73818;-67
2024/03/21 06:05:47;;;;;;;20.90;12.00;;;;;;;5.11;100.00;101064.90;111109;1232;61860;-67
2024/03/21 06:08:29;;;;;;;18.80;11.20;;;;;;;5.28;100.00;101065.58;111103;1232;62483;-67
2024/03/21 06:11:07;;;;;;;19.40;11.40;;;;;;;5.40;100.00;101070.99;111058;1235;75097;-67
2024/03/21 06:13:50;;;;;;;17.50;11.20;;;;;;;5.53;100.00;101064.49;111109;1232;73174;-67
2024/03/21 06:16:39;;;;;;;16.70;10.50;;;;;;;5.67;100.00;101070.19;111087;1238;73087;-68
2024/03/21 06:19:27;;;;;;;15.50;10.30;;;;;;;5.72;100.00;101066.44;111059;1231;61873;-67
2024/03/21 06:22:07;;;;;;;15.90;10.60;;;;;;;5.80;100.00;101066.89;111148;1231;61919;-66
2024/03/21 06:24:53;;;;;;;16.30;10.30;;;;;;;5.85;100.00;101062.98;111074;1232;75788;-67
2024/03/21 06:27:32;;;;;;;15.00;9.90;;;;;;;5.86;100.00;101062.48;111112;1232;71765;-66
2024/03/21 06:30:19;;;;;;;13.90;9.20;;;;;;;5.92;100.00;101062.00;111148;1232;73158;-66
2024/03/21 06:33:05;;;;;;;16.60;9.60;;;;;;;5.96;100.00;101062.79;111150;1235;61843;-67
2024/03/21 06:35:39;;;;;;;15.50;9.70;;;;;;;6.01;100.00;101064.23;111083;1231;61979;-67
2024/03/21 06:38:21;;;;;;;15.30;9.90;;;;;;;6.04;100.00;101061.46;111202;1232;76347;-67
2024/03/21 06:40:50;;;;;;;15.00;9.40;;;;;;;6.09;100.00;101060.74;111176;1232;73724;-67
2024/03/21 06:43:21;;;;;;;13.70;9.20;;;;;;;6.17;100.00;101062.89;111223;1237;72310;-69
2024/03/21 06:45:55;;;;;;;15.50;9.30;;;;;;;6.24;100.00;101061.66;111181;1232;62664;-69
2024/03/21 06:48:27;;;;;;;14.00;9.20;;;;;;;6.28;100.00;101062.35;111185;1232;60937;-68
2024/03/21 06:50:57;;;;;;;13.70;9.10;;;;;;;6.31;100.00;101063.96;111124;1232;75536;-68
2024/03/21 06:53:26;;;;;;;12.20;8.70;;;;;;;6.39;100.00;101062.65;111045;1232;73047;-68
2024/03/21 06:56:04;;;;;;;13.70;9.80;;;;;;;6.47;100.00;101065.98;111146;1232;73483;-68
2024/03/21 06:58:45;;;;;;;13.50;7.20;;;;;;;6.50;100.00;101067.90;111170;1232;62022;-66
2024/03/21 07:01:24;;;;;;;12.60;8.90;;;;;;;6.54;100.00;101064.77;111190;1232;62215;-67
2024/03/21 07:04:03;;;;;;;14.10;8.40;;;;;;;6.66;100.00;101066.58;111189;1232;75356;-67
2024/03/21 07:06:48;;;;;;;14.00;9.10;;;;;;;6.83;100.00;101064.13;111024;1232;73718;-67
2024/03/21 07:09:21;;;;;;;14.90;9.50;;;;;;;6.96;100.00;101062.24;111134;1232;72741;-67
2024/03/21 07:11:56;;;;;;;14.60;8.90;;;;;;;7.08;100.00;101066.20;111181;1231;60889;-68
2024/03/21 07:14:38;;;;;;;14.70;9.40;;;;;;;7.16;100.00;101066.08;111159;1232;60734;-67
2024/03/21 07:17:21;;;;;;;16.00;9.30;;;;;;;7.16;100.00;101067.38;111120;1232;76610;-67
2024/03/21 07:19:53;;;;;;;14.40;9.90;;;;;;;7.16;100.00;101069.10;111166;1235;72791;-70
2024/03/21 07:22:26;;;;;;;16.90;9.00;;;;;;;7.21;100.00;101070.95;111128;1231;70616;-69
2024/03/21 07:25:02;;;;;;;15.50;9.30;;;;;;;7.28;100.00;101069.62;111142;1232;62301;-67
2024/03/21 07:27:46;;;;;;;15.70;9.30;;;;;;;7.37;100.00;101072.98;111121;1231;61885;-68
2024/03/21 07:30:28;;;;;;;15.40;8.90;;;;;;;7.47;100.00;101076.17;111155;1231;75076;-67
2024/03/21 07:33:13;;;;;;;12.30;8.90;;;;;;;7.54;100.00;101076.61;111175;1232;73629;-67
2024/03/21 07:36:05;;;;;;;15.20;9.10;;;;;;;7.63;100.00;101079.05;111133;1232;72695;-67
2024/03/21 07:38:52;;;;;;;15.50;9.60;;;;;;;7.75;100.00;101079.77;111091;1231;61960;-68
2024/03/21 07:41:44;;;;;;;17.50;10.80;;;;;;;7.81;100.00;101079.02;111078;1232;62147;-68
2024/03/21 07:44:20;;;;;;;12.10;9.10;;;;;;;7.79;100.00;101082.14;110871;1232;75454;-68
2024/03/21 07:47:06;;;;;;;16.40;10.00;;;;;;;7.76;100.00;101083.45;111037;1232;72817;-68
2024/03/21 07:49:51;;;;;;;15.50;10.50;;;;;;;7.74;100.00;101083.92;111058;1231;73006;-67
2024/03/21 07:52:37;;;;;;;12.90;9.40;;;;;;;7.78;100.00;101087.02;111044;1231;63258;-67
2024/03/21 07:55:23;;;;;;;14.50;9.40;;;;;;;7.91;100.00;101084.97;111094;1232;62170;-67
2024/03/21 07:57:57;;;;;;;13.80;9.40;;;;;;;8.04;100.00;101084.79;111177;1232;76322;-68
2024/03/21 08:00:28;;;;;;;15.80;9.70;;;;;;;8.15;100.00;101086.23;111176;1231;72986;-68
2024/03/21 08:03:00;;;;;;;14.40;10.00;;;;;;;8.19;100.00;101087.63;111161;1232;72619;-68
2024/03/21 08:05:37;;;;;;;13.00;9.40;;;;;;;8.25;100.00;101084.67;111166;1232;62017;-69
2024/03/21 08:08:10;;;;;;;15.40;9.80;;;;;;;8.30;100.00;101083.30;111017;1232;61908;-68
2024/03/21 08:10:52;;;;;;;15.10;10.10;;;;;;;8.33;100.00;101084.27;111166;1231;74760;-67
2024/03/21 08:13:35;;;;;;;14.80;9.70;;;;;;;8.38;100.00;101086.16;111186;1231;71260;-68
2024/03/21 08:16:09;;;;;;;13.30;9.70;;;;;;;8.51;100.00;101087.24;110874;1232;72472;-69
2024/03/21 08:18:46;;;;;;;12.70;9.50;;;;;;;8.66;100.00;101083.98;110961;1232;62006;-68
2024/03/21 08:21:19;;;;;;;14.70;10.30;;;;;;;8.77;100.00;101088.23;110961;1231;61999;-67
2024/03/21 08:24:07;;;;;;;12.70;9.50;;;;;;;9.03;100.00;101092.54;110976;1232;74706;-68
2024/03/21 08:26:40;;;;;;;15.70;9.70;;;;;;;9.16;100.00;101088.83;111012;1232;71873;-68
2024/03/21 08:29:09;;;;;;;15.20;9.80;;;;;;;9.27;100.00;101087.13;110804;1232;72997;-67
2024/03/21 08:31:40;;;;;;;14.30;9.70;;;;;;;9.39;100.00;101085.19;110857;1232;62334;-67
2024/03/21 08:34:13;;;;;;;13.40;9.50;;;;;;;9.50;100.00;101086.74;111028;1232;60825;-67
2024/03/21 08:37:06;;;;;;;13.80;9.70;;;;;;;9.63;98.85;101086.14;111084;1235;76571;-68
2024/03/21 08:39:36;;;;;;;14.80;9.60;;;;;;;9.66;95.17;101084.38;111145;1232;72918;-67
2024/03/21 08:42:23;;;;;;;14.50;9.00;;;;;;;9.67;94.06;101083.54;110954;1231;72552;-68
2024/03/21 08:45:03;;;;;;;14.50;9.30;;;;;;;9.70;92.10;101086.27;110924;1235;62401;-68
2024/03/21 08:47:54;;;;;;;15.40;9.20;;;;;;;9.65;88.88;101083.03;111328;1232;60805;-70
2024/03/21 08:50:32;;;;;;;15.40;9.70;;;;;;;9.55;87.94;101085.14;111308;1232;74271;-67
2024/03/21 08:53:23;;;;;;;13.30;8.80;;;;;;;9.50;87.97;101085.67;111030;1231;71723;-66
2024/03/21 08:56:18;;;;;;;13.30;9.00;;;;;;;9.51;83.72;101087.63;110821;1232;72844;-67
2024/03/21 08:59:03;;;;;;;14.30;9.30;;;;;;;9.52;82.66;101086.41;111045;1231;62054;-67
2024/03/21 09:01:40;;;;;;;16.50;9.10;;;;;;;9.60;83.90;101083.16;111023;1232;60179;-66
2024/03/21 09:04:19;;;;;;;15.10;9.40;;;;;;;9.79;85.71;101083.95;110994;1231;75407;-66
2024/03/21 09:06:52;;;;;;;13.90;9.10;;;;;;;9.99;84.99;101085.48;110968;1232;73583;-67
2024/03/21 09:09:30;;;;;;;13.70;8.50;;;;;;;10.13;82.82;101083.30;111018;1232;72589;-66
2024/03/21 09:12:13;;;;;;;17.20;10.50;;;;;;;10.25;80.81;101082.63;110985;1232;61917;-66
2024/03/21 09:14:49;;;;;;;14.30;9.10;;;;;;;10.34;79.32;101076.44;110951;1232;62186;-66
2024/03/21 09:17:19;;;;;;;13.90;8.80;;;;;;;10.44;78.25;101075.05;111000;1235;75265;-66
2024/03/21 09:19:57;;;;;;;18.10;8.70;;;;;;;10.52;76.02;101073.94;110832;1231;73643;-69
2024/03/21 09:22:40;;;;;;;13.90;9.10;;;;;;;10.58;74.62;101072.48;111688;1231;72500;-66
2024/03/21 09:28:42;;;;;;;14.10;8.90;;;;;;;10.56;73.66;101071.92;111161;1232;61895;-66
2024/03/21 09:31:15;;;;;;;14.70;9.00;;;;;;;10.56;72.50;101071.13;111219;1232;76569;-66
2024/03/21 09:33:48;;;;;;;17.40;9.80;;;;;;;10.56;70.88;101069.36;111147;1232;73711;-65
2024/03/21 09:36:24;;;;;;;15.40;9.50;;;;;;;10.56;71.35;101069.41;111157;1232;73520;-66
2024/03/21 09:38:55;;;;;;;16.60;10.00;;;;;;;10.61;70.22;101066.11;111146;1231;62032;-66
2024/03/21 09:41:32;;;;;;;18.60;9.70;;;;;;;10.71;69.87;101063.16;111177;1231;61868;-65
2024/03/21 09:44:03;;;;;;;14.40;8.30;;;;;;;10.83;68.58;101062.91;111044;1232;75453;-67
2024/03/21 09:46:38;;;;;;;16.10;9.50;;;;;;;10.89;67.42;101060.00;111151;1231;72656;-67
2024/03/21 09:49:13;;;;;;;16.80;9.80;;;;;;;10.98;67.67;101057.87;111027;1231;74034;-66
2024/03/21 09:51:43;;;;;;;14.50;9.50;;;;;;;11.11;67.20;101057.83;111119;1237;62026;-66
2024/03/21 09:54:13;;;;;;;17.80;9.10;;;;;;;11.21;64.49;101057.27;111194;1235;61996;-66
2024/03/21 09:56:48;;;;;;;14.80;8.70;;;;;;;11.21;62.95;101053.29;111167;1231;74813;-65
2024/03/21 09:59:20;;;;;;;14.30;8.60;;;;;;;11.26;63.32;101056.20;111122;1235;74016;-66
2024/03/21 10:01:55;;;;;;;16.90;9.00;;;;;;;11.35;62.01;101049.94;111144;1231;71304;-65
2024/03/21 10:04:27;;;;;;;14.50;9.20;;;;;;;11.43;62.23;101049.75;111181;1231;62121;-65
2024/03/21 10:07:01;;;;;;;25.00;9.60;;;;;;;11.55;62.30;101049.10;111173;1231;61908;-66
2024/03/21 10:09:39;;;;;;;16.00;9.60;;;;;;;11.68;61.40;101046.70;111171;1231;75788;-65
2024/03/21 10:12:12;;;;;;;15.50;9.00;;;;;;;11.79;60.31;101042.49;111173;1235;73906;-67
2024/03/21 10:14:39;;;;;;;17.90;9.80;;;;;;;11.84;59.65;101042.92;111206;1231;73526;-65
2024/03/21 10:17:07;;;;;;;16.00;9.40;;;;;;;11.88;58.98;101042.34;111207;1231;60289;-69
2024/03/21 10:19:35;;;;;;;15.00;8.70;;;;;;;11.82;57.62;101044.34;111204;1231;61220;-67
2024/03/21 10:22:03;;;;;;;14.80;8.80;;;;;;;11.81;58.55;101042.56;111147;1231;76217;-65
2024/03/21 10:24:30;;;;;;;15.80;9.10;;;;;;;11.85;58.23;101044.55;111216;1231;73959;-65
2024/03/21 10:26:57;;;;;;;14.80;9.10;;;;;;;11.93;57.57;101041.48;111212;1231;72357;-66
2024/03/21 10:29:24;;;;;;;14.00;8.40;;;;;;;12.03;56.56;101040.33;111201;1232;61890;-65
2024/03/21 10:31:51;;;;;;;18.20;9.40;;;;;;;12.08;54.04;101037.53;111207;1231;61911;-66
2024/03/21 10:34:18;;;;;;;17.40;8.20;;;;;;;12.09;52.36;101035.94;111242;1232;76369;-66
2024/03/21 10:36:46;;;;;;;15.00;7.80;;;;;;;12.04;50.54;101030.16;111214;1231;73891;-65
2024/03/21 10:39:13;;;;;;;15.00;8.00;;;;;;;11.96;51.25;101033.41;111165;1231;72385;-65
2024/03/21 10:41:40;;;;;;;18.70;7.80;;;;;;;11.96;51.28;101031.06;111169;1235;62003;-66
2024/03/21 10:44:10;;;;;;;14.40;7.60;;;;;;;12.04;52.03;101030.16;111041;1231;61908;-66
2024/03/21 10:46:40;;;;;;;14.70;7.90;;;;;;;12.17;52.84;101028.30;111238;1231;74733;-66
2024/03/21 10:49:07;;;;;;;15.90;8.70;;;;;;;12.30;51.77;101030.86;111209;1231;72508;-65
2024/03/21 10:51:44;;;;;;;14.20;8.00;;;;;;;12.36;49.55;101027.95;110842;1231;72699;-65
2024/03/21 10:54:16;;;;;;;14.80;7.50;;;;;;;12.34;49.42;101030.19;111223;1232;61859;-65
2024/03/21 10:56:43;;;;;;;17.20;8.10;;;;;;;12.35;49.48;101028.76;111215;1231;61902;-66
2024/03/21 10:59:14;;;;;;;13.80;7.50;;;;;;;12.36;49.59;101024.79;111084;1231;73303;-66
2024/03/21 11:01:44;;;;;;;18.40;7.90;;;;;;;12.38;49.86;101022.83;111189;1231;71483;-64
2024/03/21 11:04:11;;;;;;;15.70;8.50;;;;;;;12.39;49.63;101022.55;111214;1232;73618;-65
2024/03/21 11:06:42;;;;;;;16.00;7.60;;;;;;;12.41;50.06;101026.23;111220;1235;61865;-65
2024/03/21 11:09:10;;;;;;;17.30;7.60;;;;;;;12.53;50.61;101026.82;111160;1231;62592;-67
2024/03/21 11:11:37;;;;;;;10.90;6.00;;;;;;;12.70;50.21;101021.42;111228;1231;75464;-66
2024/03/21 11:14:07;;;;;;;14.50;7.60;;;;;;;12.83;48.70;101019.13;111037;1231;72870;-64
2024/03/21 11:16:37;;;;;;;11.90;7.00;;;;;;;12.84;48.76;101021.17;111216;1231;72588;-65
2024/03/21 11:19:05;;;;;;;14.50;7.90;;;;;;;12.88;48.55;101016.58;111266;1231;61885;-64
2024/03/21 11:21:32;;;;;;;15.00;7.60;;;;;;;12.86;47.85;101017.32;111215;1231;62067;-66
2024/03/21 11:24:01;;;;;;;12.80;6.60;;;;;;;12.76;48.16;101020.48;111185;1231;75169;-66
2024/03/21 11:26:28;;;;;;;14.60;7.00;;;;;;;12.70;48.82;101023.04;111162;1232;72777;-64
2024/03/21 11:28:55;;;;;;;12.10;7.40;;;;;;;12.72;49.16;101016.66;111197;1231;72611;-64
2024/03/21 11:31:29;;;;;;;12.60;7.10;;;;;;;12.78;49.26;101012.57;111154;1231;61889;-64
2024/03/21 11:33:56;;;;;;;15.70;7.30;;;;;;;12.83;49.02;101012.64;111177;1231;60758;-65
2024/03/21 11:36:23;;;;;;;12.30;6.40;;;;;;;12.82;48.13;101009.05;111254;1233;75596;-66
2024/03/21 11:38:53;;;;;;;11.60;6.80;;;;;;;12.76;48.11;101008.80;111201;1232;70667;-66
2024/03/21 11:41:21;;;;;;;14.90;7.30;;;;;;;12.76;48.10;101008.47;111016;1231;71343;-64
2024/03/21 11:43:53;;;;;;;14.40;7.20;;;;;;;12.80;47.71;101006.67;111159;1232;62039;-65
2024/03/21 11:46:20;;;;;;;14.20;7.20;;;;;;;12.83;47.17;101004.48;111194;1231;59815;-65